createdAt,value
2023-02-06T00:00:16.922Z,104257.91
2023-02-06T00:02:43.657Z,104252.50
2023-02-06T00:05:10.346Z,104253.34
2023-02-06T00:07:37.120Z,104256.41
2023-02-06T00:10:06.647Z,104263.75
2023-02-06T00:12:33.687Z,104267.94
2023-02-06T00:15:00.430Z,104260.34
2023-02-06T00:17:27.316Z,104268.16
2023-02-06T00:19:54.011Z,104274.28
2023-02-06T00:22:21.111Z,104269.75
2023-02-06T00:24:48.027Z,104269.38
2023-02-06T00:27:14.675Z,104270.69
2023-02-06T00:29:41.422Z,104265.34
2023-02-06T00:32:08.403Z,104264.69
2023-02-06T00:34:35.137Z,104260.78
2023-02-06T00:37:01.873Z,104250.84
2023-02-06T00:39:28.865Z,104247.41
2023-02-06T00:41:55.920Z,104239.47
2023-02-06T00:44:23.157Z,104249.47
2023-02-06T00:46:50.051Z,104249.72
2023-02-06T00:49:16.923Z,104254.50
2023-02-06T00:51:43.575Z,104254.13
2023-02-06T00:54:10.345Z,104259.97
2023-02-06T00:56:37.504Z,104255.22
2023-02-06T00:59:04.458Z,104253.25
2023-02-06T01:01:31.132Z,104255.44
2023-02-06T01:03:57.883Z,104253.13
2023-02-06T01:06:24.639Z,104254.69
2023-02-06T01:08:53.569Z,104244.50
2023-02-06T01:11:21.642Z,104243.28
2023-02-06T01:13:48.691Z,104242.22
2023-02-06T01:16:16.862Z,104248.34
2023-02-06T01:18:43.866Z,104244.03
2023-02-06T01:21:12.654Z,104241.69
2023-02-06T01:23:40.938Z,104238.25
2023-02-06T01:26:08.893Z,104241.94
2023-02-06T01:28:36.904Z,104245.88
2023-02-06T01:31:11.415Z,104233.97
2023-02-06T01:33:38.477Z,104232.50
2023-02-06T01:36:05.377Z,104233.59
2023-02-06T01:38:32.112Z,104237.97
2023-02-06T01:40:59.901Z,104228.66
2023-02-06T01:43:28.817Z,104229.13
2023-02-06T01:45:55.972Z,104233.50
2023-02-06T01:48:30.309Z,104229.59
2023-02-06T01:50:58.003Z,104220.56
2023-02-06T01:53:25.258Z,104211.09
2023-02-06T01:55:53.398Z,104210.47
2023-02-06T01:58:24.569Z,104225.00
2023-02-06T02:00:51.473Z,104229.41
2023-02-06T02:03:18.284Z,104219.00
2023-02-06T02:05:47.408Z,104215.31
2023-02-06T02:08:17.262Z,104215.16
2023-02-06T02:10:44.459Z,104225.19
2023-02-06T02:13:11.270Z,104219.78
2023-02-06T02:15:41.061Z,104212.25
2023-02-06T02:18:10.924Z,104212.91
2023-02-06T02:20:39.321Z,104209.94
2023-02-06T02:23:09.203Z,104205.50
2023-02-06T02:25:38.987Z,104214.31
2023-02-06T02:28:09.112Z,104219.56
2023-02-06T02:30:39.248Z,104218.91
2023-02-06T02:33:12.115Z,104212.19
2023-02-06T02:35:46.847Z,104212.91
2023-02-06T02:38:16.994Z,104221.13
2023-02-06T02:40:48.096Z,104209.88
2023-02-06T02:43:17.851Z,104205.81
2023-02-06T02:45:47.942Z,104211.66
2023-02-06T02:48:17.048Z,104204.81
2023-02-06T02:50:44.142Z,104207.88
2023-02-06T02:53:11.597Z,104192.69
2023-02-06T02:55:38.611Z,104197.94
2023-02-06T02:58:07.588Z,104190.56
2023-02-06T03:00:37.068Z,104193.38
2023-02-06T03:03:05.170Z,104195.19
2023-02-06T03:05:33.451Z,104186.34
2023-02-06T03:08:00.572Z,104187.22
2023-02-06T03:10:32.393Z,104190.31
2023-02-06T03:13:02.193Z,104172.59
2023-02-06T03:15:32.082Z,104170.25
2023-02-06T03:18:01.484Z,104166.81
2023-02-06T03:20:28.904Z,104168.75
2023-02-06T03:22:57.040Z,104180.00
2023-02-06T03:25:28.800Z,104165.81
2023-02-06T03:27:56.188Z,104162.34
2023-02-06T03:30:24.199Z,104165.38
2023-02-06T03:32:54.522Z,104167.81
2023-02-06T03:35:22.771Z,104167.19
2023-02-06T03:37:49.952Z,104151.25
2023-02-06T03:40:17.301Z,104158.81
2023-02-06T03:42:48.782Z,104162.31
2023-02-06T03:45:17.593Z,104167.06
2023-02-06T03:47:45.352Z,104154.56
2023-02-06T03:50:12.871Z,104145.75
2023-02-06T03:52:41.411Z,104133.03
2023-02-06T03:55:10.562Z,104148.38
2023-02-06T03:57:42.299Z,104147.75
2023-02-06T04:00:09.518Z,104146.63
2023-02-06T04:02:37.249Z,104142.38
2023-02-06T04:05:04.040Z,104151.19
2023-02-06T04:07:33.572Z,104150.81
2023-02-06T04:10:00.266Z,104155.34
2023-02-06T04:12:27.696Z,104151.00
2023-02-06T04:14:54.489Z,104144.97
2023-02-06T04:17:40.720Z,104141.53
2023-02-06T04:20:09.191Z,104151.91
2023-02-06T04:22:36.232Z,104166.63
2023-02-06T04:25:03.415Z,104169.22
2023-02-06T04:27:32.551Z,104157.56
2023-02-06T04:29:59.292Z,104152.25
2023-02-06T04:32:25.988Z,104149.19
2023-02-06T04:34:52.684Z,104148.97
2023-02-06T04:37:19.417Z,104146.22
2023-02-06T04:39:47.277Z,104151.81
2023-02-06T04:42:14.016Z,104158.53
2023-02-06T04:44:40.736Z,104153.16
2023-02-06T04:47:08.036Z,104150.97
2023-02-06T04:49:36.983Z,104149.88
2023-02-06T04:52:03.843Z,104143.88
2023-02-06T04:54:32.637Z,104139.78
2023-02-06T04:56:59.490Z,104135.91
2023-02-06T04:59:26.334Z,104126.22
2023-02-06T05:01:53.054Z,104122.09
2023-02-06T05:04:19.835Z,104121.44
2023-02-06T05:06:46.523Z,104129.25
2023-02-06T05:09:13.267Z,104121.69
2023-02-06T05:11:39.980Z,104126.44
2023-02-06T05:14:06.710Z,104119.78
2023-02-06T05:16:33.501Z,104131.22
2023-02-06T05:19:00.277Z,104119.38
2023-02-06T05:21:27.354Z,104119.38
2023-02-06T05:23:54.477Z,104110.78
2023-02-06T05:26:21.580Z,104114.25
2023-02-06T05:28:48.458Z,104123.72
2023-02-06T05:31:20.083Z,104115.75
2023-02-06T05:33:51.103Z,104107.97
2023-02-06T05:36:19.450Z,104103.91
2023-02-06T05:38:47.256Z,104110.59
2023-02-06T05:41:14.230Z,104110.78
2023-02-06T05:43:40.941Z,104113.13
2023-02-06T05:46:08.026Z,104102.09
2023-02-06T05:48:37.205Z,104101.19
2023-02-06T05:51:04.056Z,104096.84
2023-02-06T05:53:30.760Z,104099.81
2023-02-06T05:55:57.648Z,104087.69
2023-02-06T05:58:24.519Z,104094.56
2023-02-06T06:00:51.221Z,104087.16
2023-02-06T06:03:17.924Z,104096.84
2023-02-06T06:05:45.345Z,104094.19
2023-02-06T06:08:12.529Z,104092.22
2023-02-06T06:10:39.345Z,104075.78
2023-02-06T06:13:08.611Z,104063.63
2023-02-06T06:15:35.613Z,104079.53
2023-02-06T06:18:03.396Z,104085.56
2023-02-06T06:20:30.067Z,104085.72
2023-02-06T06:22:56.798Z,104086.72
2023-02-06T06:25:23.541Z,104089.69
2023-02-06T06:27:50.300Z,104095.47
2023-02-06T06:30:17.116Z,104091.09
2023-02-06T06:32:43.775Z,104082.84
2023-02-06T06:35:10.450Z,104076.50
2023-02-06T06:37:37.185Z,104079.25
2023-02-06T06:40:04.105Z,104078.56
2023-02-06T06:42:30.796Z,104072.22
2023-02-06T06:44:57.569Z,104077.13
2023-02-06T06:47:24.575Z,104066.28
2023-02-06T06:49:51.431Z,104064.97
2023-02-06T06:52:25.006Z,104074.63
2023-02-06T06:54:53.145Z,104077.84
2023-02-06T06:57:20.541Z,104072.84
2023-02-06T06:59:47.273Z,104059.16
2023-02-06T07:02:14.282Z,104062.59
2023-02-06T07:04:41.055Z,104071.63
2023-02-06T07:07:08.568Z,104069.47
2023-02-06T07:09:35.331Z,104067.28
2023-02-06T07:12:02.115Z,104063.13
2023-02-06T07:14:29.340Z,104062.88
2023-02-06T07:16:56.547Z,104051.00
2023-02-06T07:19:23.321Z,104039.25
2023-02-06T07:21:50.113Z,104046.38
2023-02-06T07:24:16.996Z,104049.19
2023-02-06T07:26:43.973Z,104058.00
2023-02-06T07:29:11.091Z,104053.72
2023-02-06T07:31:37.893Z,104042.06
2023-02-06T07:34:07.165Z,104040.25
2023-02-06T07:36:33.868Z,104045.72
2023-02-06T07:39:02.057Z,104043.13
2023-02-06T07:41:29.172Z,104039.47
2023-02-06T07:43:55.870Z,104037.13
2023-02-06T07:46:23.058Z,104035.06
2023-02-06T07:48:50.030Z,104033.41
2023-02-06T07:51:17.274Z,104028.16
2023-02-06T07:53:44.122Z,104031.50
2023-02-06T07:56:13.000Z,104028.94
2023-02-06T07:58:39.869Z,104034.59
2023-02-06T08:01:07.301Z,104036.84
2023-02-06T08:03:34.130Z,104036.78
2023-02-06T08:06:00.945Z,104025.72
2023-02-06T08:08:27.675Z,104024.16
2023-02-06T08:10:54.461Z,104028.19
2023-02-06T08:13:21.569Z,104029.66
2023-02-06T08:15:48.295Z,104019.66
2023-02-06T08:18:17.310Z,104025.91
2023-02-06T08:20:44.137Z,104037.53
2023-02-06T08:23:10.989Z,104032.31
2023-02-06T08:25:38.504Z,104030.75
2023-02-06T08:28:05.791Z,104041.53
2023-02-06T08:30:34.732Z,104030.66
2023-02-06T08:33:01.661Z,104028.22
2023-02-06T08:35:28.769Z,104034.72
2023-02-06T08:37:55.609Z,104041.19
2023-02-06T08:40:22.426Z,104031.00
2023-02-06T08:42:51.462Z,104029.41
2023-02-06T08:45:18.719Z,104034.19
2023-02-06T08:47:45.961Z,104037.84
2023-02-06T08:50:12.853Z,104041.28
2023-02-06T08:52:42.526Z,104038.72
2023-02-06T08:55:09.616Z,104035.66
2023-02-06T08:57:36.425Z,104043.25
2023-02-06T09:00:04.215Z,104048.88
2023-02-06T09:02:30.957Z,104041.53
2023-02-06T09:04:57.850Z,104053.00
2023-02-06T09:07:24.678Z,104054.09
2023-02-06T09:09:51.657Z,104056.28
2023-02-06T09:12:18.624Z,104057.16
2023-02-06T09:14:45.910Z,104054.56
2023-02-06T09:17:12.791Z,104044.63
2023-02-06T09:19:39.781Z,104041.81
2023-02-06T09:22:08.741Z,104054.38
2023-02-06T09:24:35.543Z,104043.13
2023-02-06T09:27:02.295Z,104041.19
2023-02-06T09:29:32.821Z,104053.94
2023-02-06T09:32:02.075Z,104041.59
2023-02-06T09:34:29.258Z,104043.69
2023-02-06T09:36:57.240Z,104038.72
2023-02-06T09:39:24.479Z,104045.81
2023-02-06T09:41:55.291Z,104045.34
2023-02-06T09:44:22.493Z,104031.66
2023-02-06T09:46:53.254Z,104050.00
2023-02-06T09:49:22.757Z,104039.59
2023-02-06T09:51:53.078Z,104040.47
2023-02-06T09:54:22.928Z,104035.72
2023-02-06T09:56:52.888Z,104040.47
2023-02-06T09:59:23.113Z,104040.84
2023-02-06T10:01:53.122Z,104037.44
2023-02-06T10:04:23.252Z,104041.97
2023-02-06T10:06:50.428Z,104056.25
2023-02-06T10:09:19.237Z,104056.25
2023-02-06T10:11:50.083Z,104053.44
2023-02-06T10:14:22.470Z,104050.63
2023-02-06T10:16:53.731Z,104061.88
2023-02-06T10:19:21.935Z,104059.28
2023-02-06T10:21:52.156Z,104065.78
2023-02-06T10:24:22.127Z,104059.56
2023-02-06T10:26:50.464Z,104062.59
2023-02-06T10:29:21.634Z,104063.69
2023-02-06T10:31:50.726Z,104057.19
2023-02-06T10:34:20.608Z,104049.25
2023-02-06T10:36:48.725Z,104044.72
2023-02-06T10:39:15.859Z,104040.19
2023-02-06T10:41:45.808Z,104048.88
2023-02-06T10:44:15.830Z,104041.75
2023-02-06T10:46:46.284Z,104045.91
2023-02-06T10:49:21.028Z,104039.66
2023-02-06T10:51:52.957Z,104038.78
2023-02-06T10:54:23.072Z,104036.44
2023-02-06T10:56:52.381Z,104036.44
2023-02-06T10:59:23.201Z,104035.78
2023-02-06T11:01:52.259Z,104026.97
2023-02-06T11:04:34.301Z,104030.66
2023-02-06T11:07:04.689Z,104032.88
2023-02-06T11:09:31.585Z,104028.31
2023-02-06T11:11:59.096Z,104022.06
2023-02-06T11:14:32.306Z,104013.03
2023-02-06T11:17:00.368Z,104009.59
2023-02-06T11:19:30.472Z,104002.25
2023-02-06T11:21:57.695Z,104000.78
2023-02-06T11:24:25.460Z,103994.28
2023-02-06T11:26:55.267Z,103985.22
2023-02-06T11:29:26.916Z,103981.59
2023-02-06T11:31:57.334Z,103975.09
2023-02-06T11:34:27.701Z,103969.38
2023-02-06T11:36:56.142Z,103979.38
2023-02-06T11:39:23.279Z,103974.41
2023-02-06T11:41:53.303Z,103978.28
2023-02-06T11:44:20.412Z,103961.91
2023-02-06T11:46:47.241Z,103960.56
2023-02-06T11:49:17.140Z,103957.28
2023-02-06T11:51:47.103Z,103950.56
2023-02-06T11:54:21.798Z,103953.59
2023-02-06T11:56:51.680Z,103943.22
2023-02-06T11:59:23.465Z,103937.38
2023-02-06T12:01:50.681Z,103936.72
2023-02-06T12:04:24.415Z,103942.94
2023-02-06T12:06:54.752Z,103928.41
2023-02-06T12:09:21.781Z,103922.66
2023-02-06T12:11:48.925Z,103929.50
2023-02-06T12:14:20.890Z,103923.41
2023-02-06T12:16:47.770Z,103926.19
2023-02-06T12:19:17.490Z,103915.59
2023-02-06T12:21:47.693Z,103901.53
2023-02-06T12:24:15.279Z,103902.19
2023-02-06T12:26:43.148Z,103904.50
2023-02-06T12:29:13.072Z,103905.94
2023-02-06T12:31:41.938Z,103899.88
2023-02-06T12:34:12.910Z,103901.09
2023-02-06T12:36:51.360Z,103901.47
2023-02-06T12:39:20.185Z,103899.94
2023-02-06T12:41:50.140Z,103889.31
2023-02-06T12:44:19.976Z,103883.81
2023-02-06T12:46:50.281Z,103872.94
2023-02-06T12:49:23.775Z,103873.06
2023-02-06T12:51:53.714Z,103861.09
2023-02-06T12:54:23.155Z,103860.38
2023-02-06T12:56:52.590Z,103858.78
2023-02-06T12:59:21.355Z,103855.47
2023-02-06T13:01:52.258Z,103853.88
2023-02-06T13:04:23.924Z,103851.19
2023-02-06T13:06:54.523Z,103850.44
2023-02-06T13:09:25.045Z,103848.84
2023-02-06T13:11:52.518Z,103836.84
2023-02-06T13:14:22.365Z,103833.56
2023-02-06T13:16:51.069Z,103833.94
2023-02-06T13:19:21.307Z,103826.06
2023-02-06T13:21:51.466Z,103822.53
2023-02-06T13:24:19.548Z,103820.34
2023-02-06T13:26:48.430Z,103828.53
2023-02-06T13:29:18.671Z,103817.63
2023-02-06T13:31:45.473Z,103816.03
2023-02-06T13:34:16.440Z,103805.66
2023-02-06T13:36:43.571Z,103800.03
2023-02-06T13:39:13.407Z,103795.25
2023-02-06T13:41:42.580Z,103804.28
2023-02-06T13:44:12.729Z,103800.38
2023-02-06T13:46:42.851Z,103789.97
2023-02-06T13:49:12.744Z,103790.22
2023-02-06T13:51:43.080Z,103787.41
2023-02-06T13:54:13.007Z,103780.91
2023-02-06T13:56:41.855Z,103787.16
2023-02-06T13:59:11.771Z,103783.50
2023-02-06T14:01:38.616Z,103778.09
2023-02-06T14:04:07.697Z,103771.59
2023-02-06T14:06:34.763Z,103775.28
2023-02-06T14:09:03.382Z,103769.91
2023-02-06T14:11:33.491Z,103768.16
2023-02-06T14:14:03.704Z,103761.06
2023-02-06T14:16:31.006Z,103748.97
2023-02-06T14:18:58.119Z,103744.69
2023-02-06T14:21:28.022Z,103751.41
2023-02-06T14:23:57.864Z,103752.53
2023-02-06T14:26:26.177Z,103748.25
2023-02-06T14:28:56.155Z,103739.22
2023-02-06T14:31:30.969Z,103743.97
2023-02-06T14:34:00.935Z,103744.47
2023-02-06T14:36:30.919Z,103737.97
2023-02-06T14:39:02.764Z,103725.50
2023-02-06T14:41:31.076Z,103734.22
2023-02-06T14:43:59.175Z,103737.50
2023-02-06T14:46:27.512Z,103730.66
2023-02-06T14:48:57.434Z,103730.66
2023-02-06T14:51:25.556Z,103725.31
2023-02-06T14:53:54.182Z,103724.44
2023-02-06T14:56:24.256Z,103721.88
2023-02-06T14:58:51.646Z,103726.41
2023-02-06T15:01:19.028Z,103728.59
2023-02-06T15:03:46.843Z,103725.78
2023-02-06T15:06:26.080Z,103722.63
2023-02-06T15:08:53.196Z,103717.22
2023-02-06T15:11:21.902Z,103721.66
2023-02-06T15:13:50.567Z,103716.03
2023-02-06T15:16:17.615Z,103711.41
2023-02-06T15:18:44.847Z,103716.19
2023-02-06T15:21:14.227Z,103705.66
2023-02-06T15:23:44.178Z,103708.09
2023-02-06T15:26:17.179Z,103704.34
2023-02-06T15:28:44.403Z,103702.00
2023-02-06T15:31:14.268Z,103699.06
2023-02-06T15:33:41.275Z,103692.81
2023-02-06T15:36:08.430Z,103688.66
2023-02-06T15:38:39.942Z,103689.81
2023-02-06T15:41:07.360Z,103680.81
2023-02-06T15:43:34.626Z,103687.34
2023-02-06T15:46:02.650Z,103682.19
2023-02-06T15:48:34.703Z,103686.09
2023-02-06T15:51:02.923Z,103679.38
2023-02-06T15:53:32.661Z,103684.38
2023-02-06T15:56:00.626Z,103687.19
2023-02-06T15:58:27.688Z,103694.53
2023-02-06T16:00:57.585Z,103687.34
2023-02-06T16:03:26.236Z,103681.25
2023-02-06T16:05:53.246Z,103685.84
2023-02-06T16:08:21.178Z,103675.81
2023-02-06T16:10:50.202Z,103684.03
2023-02-06T16:13:20.225Z,103673.13
2023-02-06T16:15:50.002Z,103676.56
2023-02-06T16:18:20.562Z,103669.56
2023-02-06T16:20:47.560Z,103676.91
2023-02-06T16:23:17.381Z,103674.47
2023-02-06T16:25:45.447Z,103669.44
2023-02-06T16:28:15.298Z,103670.03
2023-02-06T16:30:42.621Z,103669.22
2023-02-06T16:33:17.057Z,103662.47
2023-02-06T16:35:43.997Z,103657.69
2023-02-06T16:38:11.255Z,103654.13
2023-02-06T16:40:38.471Z,103652.78
2023-02-06T16:43:10.665Z,103650.56
2023-02-06T16:45:38.326Z,103652.28
2023-02-06T16:48:10.300Z,103648.97
2023-02-06T16:50:38.776Z,103653.25
2023-02-06T16:53:07.158Z,103651.88
2023-02-06T16:55:36.623Z,103663.75
2023-02-06T16:58:03.815Z,103655.03
2023-02-06T17:00:31.802Z,103660.66
2023-02-06T17:02:59.179Z,103664.09
2023-02-06T17:05:26.890Z,103666.69
2023-02-06T17:07:54.233Z,103669.50
2023-02-06T17:10:23.659Z,103659.91
2023-02-06T17:12:50.546Z,103666.41
2023-02-06T17:15:18.445Z,103657.97
2023-02-06T17:17:47.960Z,103657.97
2023-02-06T17:20:18.322Z,103653.19
2023-02-06T17:22:45.402Z,103656.00
2023-02-06T17:25:12.676Z,103652.34
2023-02-06T17:27:39.597Z,103653.47
2023-02-06T17:30:06.820Z,103645.84
2023-02-06T17:32:33.940Z,103654.56
2023-02-06T17:35:02.761Z,103653.72
2023-02-06T17:37:29.553Z,103656.75
2023-02-06T17:39:56.418Z,103657.03
2023-02-06T17:42:24.421Z,103657.28
2023-02-06T17:44:51.351Z,103649.06
2023-02-06T17:47:18.227Z,103652.16
2023-02-06T17:49:47.226Z,103645.06
2023-02-06T17:52:14.242Z,103649.22
2023-02-06T17:54:41.220Z,103644.69
2023-02-06T17:57:08.410Z,103654.25
2023-02-06T17:59:35.503Z,103645.22
2023-02-06T18:02:04.507Z,103643.75
2023-02-06T18:04:31.978Z,103641.16
2023-02-06T18:06:59.202Z,103638.63
2023-02-06T18:09:26.026Z,103643.03
2023-02-06T18:11:52.867Z,103637.66
2023-02-06T18:14:21.840Z,103642.19
2023-02-06T18:16:48.791Z,103629.22
2023-02-06T18:19:16.061Z,103631.69
2023-02-06T18:21:42.807Z,103627.78
2023-02-06T18:24:09.602Z,103623.47
2023-02-06T18:26:36.963Z,103619.22
2023-02-06T18:29:05.243Z,103617.50
2023-02-06T18:31:34.669Z,103619.47
2023-02-06T18:34:03.282Z,103631.81
2023-02-06T18:36:30.434Z,103625.59
2023-02-06T18:38:57.622Z,103629.16
2023-02-06T18:41:27.638Z,103623.75
2023-02-06T18:43:54.470Z,103629.03
2023-02-06T18:46:21.297Z,103614.34
2023-02-06T18:48:48.060Z,103623.41
2023-02-06T18:51:17.067Z,103627.81
2023-02-06T18:53:44.005Z,103630.63
2023-02-06T18:56:10.980Z,103637.72
2023-02-06T18:58:37.836Z,103636.59
2023-02-06T19:01:11.297Z,103642.59
2023-02-06T19:03:39.710Z,103657.13
2023-02-06T19:06:09.928Z,103652.09
2023-02-06T19:08:37.062Z,103656.91
2023-02-06T19:11:03.888Z,103652.50
2023-02-06T19:13:34.415Z,103660.22
2023-02-06T19:16:05.972Z,103654.81
2023-02-06T19:18:38.706Z,103655.44
2023-02-06T19:21:11.160Z,103648.84
2023-02-06T19:23:38.929Z,103654.69
2023-02-06T19:26:09.247Z,103649.59
2023-02-06T19:28:37.305Z,103653.34
2023-02-06T19:31:04.657Z,103655.53
2023-02-06T19:33:32.640Z,103642.84
2023-02-06T19:35:59.542Z,103649.31
2023-02-06T19:38:26.295Z,103640.53
2023-02-06T19:40:53.701Z,103655.03
2023-02-06T19:43:20.678Z,103653.09
2023-02-06T19:45:47.518Z,103647.13
2023-02-06T19:48:14.347Z,103648.44
2023-02-06T19:50:42.062Z,103652.34
2023-02-06T19:53:09.400Z,103655.63
2023-02-06T19:55:36.670Z,103652.81
2023-02-06T19:58:03.850Z,103649.78
2023-02-06T20:00:30.599Z,103660.16
2023-02-06T20:02:57.805Z,103654.53
2023-02-06T20:05:27.238Z,103650.75
2023-02-06T20:07:54.508Z,103660.38
2023-02-06T20:10:22.014Z,103652.47
2023-02-06T20:12:50.984Z,103643.81
2023-02-06T20:15:17.762Z,103653.31
2023-02-06T20:17:44.567Z,103658.94
2023-02-06T20:20:12.117Z,103650.50
2023-02-06T20:22:40.097Z,103652.91
2023-02-06T20:25:07.112Z,103645.38
2023-02-06T20:27:33.890Z,103644.50
2023-02-06T20:30:00.702Z,103630.31
2023-02-06T20:32:29.816Z,103631.78
2023-02-06T20:34:57.904Z,103633.34
2023-02-06T20:37:26.375Z,103635.81
2023-02-06T20:39:53.299Z,103640.31
2023-02-06T20:42:22.442Z,103633.22
2023-02-06T20:44:50.478Z,103641.66
2023-02-06T20:47:17.242Z,103641.03
2023-02-06T20:49:44.271Z,103639.31
2023-02-06T20:52:11.316Z,103639.31
2023-02-06T20:54:38.292Z,103635.88
2023-02-06T20:57:05.340Z,103636.38
2023-02-06T20:59:32.363Z,103631.00
2023-02-06T21:01:59.101Z,103630.63
2023-02-06T21:04:26.158Z,103631.13
2023-02-06T21:06:52.939Z,103626.38
2023-02-06T21:09:20.336Z,103641.50
2023-02-06T21:11:48.629Z,103635.00
2023-02-06T21:14:15.625Z,103638.91
2023-02-06T21:16:44.117Z,103637.22
2023-02-06T21:19:12.026Z,103640.47
2023-02-06T21:21:38.772Z,103647.81
2023-02-06T21:24:06.170Z,103636.38
2023-02-06T21:26:33.558Z,103647.81
2023-02-06T21:29:03.029Z,103641.56
2023-02-06T21:31:37.310Z,103648.44
2023-02-06T21:34:07.454Z,103644.28
2023-02-06T21:36:35.525Z,103649.81
2023-02-06T21:39:02.300Z,103648.25
2023-02-06T21:41:29.484Z,103645.81
2023-02-06T21:43:56.340Z,103643.13
2023-02-06T21:46:23.192Z,103640.47
2023-02-06T21:48:52.295Z,103641.69
2023-02-06T21:51:19.306Z,103642.72
2023-02-06T21:53:46.253Z,103642.81
2023-02-06T21:56:15.767Z,103639.53
2023-02-06T21:58:42.807Z,103634.41
2023-02-06T22:01:13.789Z,103643.84
2023-02-06T22:03:40.500Z,103643.97
2023-02-06T22:06:09.493Z,103645.19
2023-02-06T22:08:36.685Z,103639.69
2023-02-06T22:11:10.217Z,103642.59
2023-02-06T22:13:36.899Z,103643.56
2023-02-06T22:16:03.775Z,103643.69
2023-02-06T22:18:30.458Z,103647.22
2023-02-06T22:21:00.926Z,103655.78
2023-02-06T22:23:28.093Z,103651.13
2023-02-06T22:25:54.840Z,103648.44
2023-02-06T22:28:22.009Z,103651.41
2023-02-06T22:30:49.277Z,103646.75
2023-02-06T22:33:16.177Z,103643.22
2023-02-06T22:35:43.233Z,103650.63
2023-02-06T22:38:09.987Z,103648.78
2023-02-06T22:40:36.664Z,103652.56
2023-02-06T22:43:03.409Z,103643.63
2023-02-06T22:45:30.435Z,103647.66
2023-02-06T22:47:57.238Z,103648.03
2023-02-06T22:50:24.845Z,103643.84
2023-02-06T22:52:54.970Z,103649.59
2023-02-06T22:55:21.814Z,103657.50
2023-02-06T22:57:48.810Z,103645.16
2023-02-06T23:00:17.224Z,103646.88
2023-02-06T23:02:44.410Z,103649.19
2023-02-06T23:05:11.455Z,103646.13
2023-02-06T23:07:38.501Z,103651.00
2023-02-06T23:10:07.768Z,103647.91
2023-02-06T23:12:35.425Z,103641.19
2023-02-06T23:15:02.601Z,103642.66
2023-02-06T23:17:29.572Z,103642.16
2023-02-06T23:19:56.564Z,103635.66
2023-02-06T23:22:23.458Z,103630.88
2023-02-06T23:24:50.981Z,103633.69
2023-02-06T23:27:19.968Z,103637.38
2023-02-06T23:29:47.030Z,103641.28
2023-02-06T23:32:16.086Z,103640.72
2023-02-06T23:34:42.921Z,103640.94
2023-02-06T23:37:09.784Z,103633.84
2023-02-06T23:39:36.971Z,103634.97
2023-02-06T23:42:04.314Z,103643.66
2023-02-06T23:44:31.287Z,103639.41
2023-02-06T23:46:58.148Z,103635.09
2023-02-06T23:49:24.987Z,103626.06
2023-02-06T23:51:52.078Z,103629.13
2023-02-06T23:54:18.947Z,103634.13
2023-02-06T23:56:45.843Z,103635.84
2023-02-06T23:59:12.989Z,103631.59
